createdAt,value
2023-04-28T00:00:04.655Z,100129.38
2023-04-28T00:02:34.384Z,100128.97
2023-04-28T00:05:02.574Z,100133.81
2023-04-28T00:07:30.716Z,100126.31
2023-04-28T00:09:58.551Z,100122.06
2023-04-28T00:12:26.522Z,100121.75
2023-04-28T00:14:54.736Z,100123.09
2023-04-28T00:17:24.129Z,100113.84
2023-04-28T00:19:52.994Z,100120.06
2023-04-28T00:22:20.914Z,100122.28
2023-04-28T00:24:48.785Z,100122.88
2023-04-28T00:27:16.749Z,100121.03
2023-04-28T00:29:44.778Z,100122.59
2023-04-28T00:32:13.603Z,100130.06
2023-04-28T00:34:43.018Z,100132.16
2023-04-28T00:37:10.916Z,100123.31
2023-04-28T00:39:38.760Z,100126.75
2023-04-28T00:42:06.738Z,100125.03
2023-04-28T00:44:34.628Z,100130.88
2023-04-28T00:47:02.684Z,100128.44
2023-04-28T00:49:31.369Z,100131.56
2023-04-28T00:52:03.777Z,100131.31
2023-04-28T00:54:31.829Z,100132.00
2023-04-28T00:56:59.833Z,100128.44
2023-04-28T00:59:27.665Z,100129.50
2023-04-28T01:01:56.324Z,100128.53
2023-04-28T01:04:25.033Z,100124.09
2023-04-28T01:06:54.634Z,100123.94
2023-04-28T01:09:23.976Z,100131.31
2023-04-28T01:11:53.470Z,100137.97
2023-04-28T01:14:35.722Z,100134.84
2023-04-28T01:17:04.729Z,100136.75
2023-04-28T01:19:32.771Z,100135.13
2023-04-28T01:22:01.043Z,100135.06
2023-04-28T01:24:30.336Z,100126.03
2023-04-28T01:27:03.320Z,100126.75
2023-04-28T01:29:31.234Z,100124.03
2023-04-28T01:31:59.576Z,100122.97
2023-04-28T01:34:27.724Z,100125.03
2023-04-28T01:36:56.425Z,100121.06
2023-04-28T01:39:24.554Z,100122.06
2023-04-28T01:41:53.805Z,100125.31
2023-04-28T01:44:21.815Z,100127.97
2023-04-28T01:46:49.937Z,100129.00
2023-04-28T01:49:17.890Z,100133.50
2023-04-28T01:51:45.863Z,100124.31
2023-04-28T01:54:13.773Z,100131.16
2023-04-28T01:56:42.314Z,100125.59
2023-04-28T01:59:13.972Z,100129.00
2023-04-28T02:01:41.861Z,100122.38
2023-04-28T02:04:10.066Z,100126.75
2023-04-28T02:06:39.335Z,100127.28
2023-04-28T02:09:07.337Z,100132.84
2023-04-28T02:11:35.280Z,100141.94
2023-04-28T02:14:03.352Z,100143.91
2023-04-28T02:16:33.246Z,100137.16
2023-04-28T02:19:01.651Z,100141.19
2023-04-28T02:21:29.636Z,100124.69
2023-04-28T02:23:57.693Z,100137.03
2023-04-28T02:26:25.864Z,100135.22
2023-04-28T02:28:53.848Z,100134.28
2023-04-28T02:31:21.782Z,100138.47
2023-04-28T02:33:51.139Z,100134.28
2023-04-28T02:36:19.152Z,100130.25
2023-04-28T02:38:47.076Z,100126.16
2023-04-28T02:41:15.551Z,100136.13
2023-04-28T02:43:43.585Z,100131.13
2023-04-28T02:46:11.763Z,100136.25
2023-04-28T02:48:40.727Z,100143.44
2023-04-28T02:51:10.666Z,100138.34
2023-04-28T02:53:39.146Z,100140.84
2023-04-28T02:56:07.554Z,100133.06
2023-04-28T02:58:35.608Z,100133.22
2023-04-28T03:01:04.980Z,100136.25
2023-04-28T03:03:33.659Z,100135.94
2023-04-28T03:06:01.815Z,100139.28
2023-04-28T03:08:31.093Z,100139.75
2023-04-28T03:10:58.929Z,100130.50
2023-04-28T03:13:27.245Z,100143.53
2023-04-28T03:15:55.489Z,100133.69
2023-04-28T03:18:24.530Z,100131.53
2023-04-28T03:20:52.493Z,100140.66
2023-04-28T03:23:21.112Z,100136.31
2023-04-28T03:25:50.435Z,100134.63
2023-04-28T03:28:18.415Z,100128.28
2023-04-28T03:30:46.351Z,100129.00
2023-04-28T03:33:14.312Z,100128.69
2023-04-28T03:35:42.318Z,100131.53
2023-04-28T03:38:10.714Z,100126.66
2023-04-28T03:40:39.057Z,100129.06
2023-04-28T03:43:14.081Z,100126.19
2023-04-28T03:45:50.368Z,100131.66
2023-04-28T03:48:18.348Z,100125.88
2023-04-28T03:50:46.446Z,100134.56
2023-04-28T03:53:14.514Z,100136.78
2023-04-28T03:55:42.443Z,100130.59
2023-04-28T03:58:10.666Z,100128.94
2023-04-28T04:00:40.088Z,100135.59
2023-04-28T04:03:08.217Z,100127.84
2023-04-28T04:05:36.662Z,100124.97
2023-04-28T04:08:06.011Z,100117.56
2023-04-28T04:10:34.440Z,100115.53
2023-04-28T04:13:02.381Z,100120.78
2023-04-28T04:15:30.373Z,100130.09
2023-04-28T04:18:00.392Z,100121.56
2023-04-28T04:20:35.581Z,100127.75
2023-04-28T04:23:03.700Z,100129.06
2023-04-28T04:25:32.212Z,100136.66
2023-04-28T04:28:00.677Z,100133.53
2023-04-28T04:30:28.984Z,100133.06
2023-04-28T04:32:56.928Z,100138.56
2023-04-28T04:35:26.506Z,100143.69
2023-04-28T04:37:54.775Z,100142.28
2023-04-28T04:40:22.764Z,100135.56
2023-04-28T04:42:51.514Z,100146.56
2023-04-28T04:45:21.408Z,100150.28
2023-04-28T04:47:50.636Z,100154.84
2023-04-28T04:50:19.033Z,100148.34
2023-04-28T04:52:48.338Z,100161.31
2023-04-28T04:55:16.481Z,100156.56
2023-04-28T04:57:44.621Z,100158.84
2023-04-28T05:00:30.554Z,100154.00
2023-04-28T05:03:01.555Z,100150.00
2023-04-28T05:05:29.655Z,100151.84
2023-04-28T05:08:14.161Z,100141.09
2023-04-28T05:10:42.315Z,100143.38
2023-04-28T05:13:10.749Z,100144.78
2023-04-28T05:15:39.424Z,100136.28
2023-04-28T05:18:28.803Z,100141.22
2023-04-28T05:20:56.914Z,100147.72
2023-04-28T05:23:26.426Z,100155.50
2023-04-28T05:25:54.385Z,100149.41
2023-04-28T05:28:22.492Z,100151.56
2023-04-28T05:30:53.899Z,100162.31
2023-04-28T05:33:22.415Z,100153.69
2023-04-28T05:35:50.516Z,100155.22
2023-04-28T05:38:18.596Z,100157.63
2023-04-28T05:40:49.646Z,100159.13
2023-04-28T05:43:18.251Z,100140.75
2023-04-28T05:45:46.400Z,100150.00
2023-04-28T05:48:14.817Z,100138.13
2023-04-28T05:50:42.705Z,100146.38
2023-04-28T05:53:12.007Z,100144.50
2023-04-28T05:55:40.410Z,100136.59
2023-04-28T05:58:09.728Z,100129.44
2023-04-28T06:00:38.824Z,100141.19
2023-04-28T06:03:07.107Z,100148.88
2023-04-28T06:05:35.361Z,100147.91
2023-04-28T06:08:03.592Z,100142.94
2023-04-28T06:10:32.624Z,100142.00
2023-04-28T06:13:00.516Z,100147.91
2023-04-28T06:15:30.086Z,100148.16
2023-04-28T06:17:59.772Z,100149.72
2023-04-28T06:20:27.646Z,100148.16
2023-04-28T06:22:56.201Z,100137.94
2023-04-28T06:25:24.211Z,100141.03
2023-04-28T06:27:52.185Z,100143.38
2023-04-28T06:30:22.460Z,100146.59
2023-04-28T06:32:52.261Z,100139.22
2023-04-28T06:35:20.524Z,100128.88
2023-04-28T06:37:48.512Z,100125.84
2023-04-28T06:40:17.052Z,100127.22
2023-04-28T06:42:52.394Z,100131.22
2023-04-28T06:45:25.237Z,100127.44
2023-04-28T06:47:56.517Z,100122.16
2023-04-28T06:50:24.904Z,100111.81
2023-04-28T06:52:52.788Z,100125.88
2023-04-28T06:55:22.403Z,100122.63
2023-04-28T06:57:51.359Z,100116.09
2023-04-28T07:00:19.676Z,100114.25
2023-04-28T07:02:47.708Z,100118.91
2023-04-28T07:05:17.182Z,100116.00
2023-04-28T07:07:45.155Z,100117.69
2023-04-28T07:10:13.388Z,100118.47
2023-04-28T07:12:41.386Z,100116.56
2023-04-28T07:15:10.472Z,100119.53
2023-04-28T07:17:38.758Z,100109.19
2023-04-28T07:20:07.972Z,100114.59
2023-04-28T07:22:38.557Z,100114.00
2023-04-28T07:25:06.849Z,100104.38
2023-04-28T07:27:34.731Z,100115.91
2023-04-28T07:30:11.594Z,100111.72
2023-04-28T07:32:43.830Z,100108.53
2023-04-28T07:35:11.762Z,100105.16
2023-04-28T07:37:41.236Z,100103.28
2023-04-28T07:40:10.100Z,100102.66
2023-04-28T07:42:38.061Z,100092.94
2023-04-28T07:45:07.074Z,100086.72
2023-04-28T07:47:35.526Z,100091.38
2023-04-28T07:50:05.268Z,100083.16
2023-04-28T07:52:33.251Z,100078.41
2023-04-28T07:55:03.072Z,100080.16
2023-04-28T07:57:31.498Z,100074.31
2023-04-28T07:59:59.718Z,100069.25
2023-04-28T08:02:27.809Z,100080.41
2023-04-28T08:04:55.953Z,100073.03
2023-04-28T08:07:24.607Z,100064.72
2023-04-28T08:09:53.899Z,100069.13
2023-04-28T08:12:23.242Z,100067.56
2023-04-28T08:14:51.169Z,100061.84
2023-04-28T08:17:19.162Z,100046.94
2023-04-28T08:19:47.607Z,100051.13
2023-04-28T08:22:15.809Z,100048.78
2023-04-28T08:24:43.759Z,100049.72
2023-04-28T08:27:11.895Z,100043.31
2023-04-28T08:29:41.262Z,100041.16
2023-04-28T08:32:09.194Z,100043.19
2023-04-28T08:34:37.121Z,100042.63
2023-04-28T08:37:06.811Z,100052.94
2023-04-28T08:39:35.390Z,100052.28
2023-04-28T08:42:05.626Z,100053.22
2023-04-28T08:44:38.618Z,100054.19
2023-04-28T08:47:13.756Z,100058.53
2023-04-28T08:49:42.543Z,100049.47
2023-04-28T08:52:12.660Z,100045.44
2023-04-28T08:54:41.693Z,100048.88
2023-04-28T08:57:11.110Z,100038.03
2023-04-28T08:59:40.729Z,100032.19
2023-04-28T09:02:10.538Z,100034.09
2023-04-28T09:04:39.019Z,100035.13
2023-04-28T09:07:12.276Z,100042.88
2023-04-28T09:09:40.976Z,100044.69
2023-04-28T09:12:09.196Z,100041.44
2023-04-28T09:14:38.520Z,100034.78
2023-04-28T09:17:13.383Z,100028.19
2023-04-28T09:19:43.323Z,100032.50
2023-04-28T09:22:25.553Z,100042.81
2023-04-28T09:24:55.412Z,100041.28
2023-04-28T09:27:28.507Z,100035.53
2023-04-28T09:29:56.622Z,100033.03
2023-04-28T09:32:28.092Z,100031.34
2023-04-28T09:34:57.475Z,100027.16
2023-04-28T09:37:27.167Z,100018.78
2023-04-28T09:39:56.010Z,100009.72
2023-04-28T09:42:32.955Z,100013.97
2023-04-28T09:45:02.935Z,100013.94
2023-04-28T09:47:35.519Z,100006.47
2023-04-28T09:50:06.102Z,99996.47
2023-04-28T09:52:34.917Z,99989.84
2023-04-28T09:55:03.992Z,99989.06
2023-04-28T09:57:33.530Z,99979.03
2023-04-28T10:00:02.470Z,99984.19
2023-04-28T10:05:10.092Z,99980.81
2023-04-28T10:07:40.059Z,99969.00
2023-04-28T10:10:09.089Z,99967.44
2023-04-28T10:12:38.607Z,99962.44
2023-04-28T10:15:08.709Z,99957.38
2023-04-28T10:17:38.308Z,99949.81
2023-04-28T10:20:08.667Z,99944.69
2023-04-28T10:22:59.077Z,99936.34
2023-04-28T10:25:28.567Z,99928.72
2023-04-28T10:27:57.233Z,99933.81
2023-04-28T10:30:29.203Z,99931.31
2023-04-28T10:33:27.477Z,99922.94
2023-04-28T10:35:55.673Z,99922.19
2023-04-28T10:38:23.584Z,99915.50
2023-04-28T10:40:52.375Z,99902.84
2023-04-28T10:43:40.365Z,99892.81
2023-04-28T10:46:11.745Z,99890.34
2023-04-28T10:49:08.292Z,99890.41
2023-04-28T10:51:37.580Z,99885.38
2023-04-28T10:54:28.230Z,99881.19
2023-04-28T10:57:19.185Z,99878.66
2023-04-28T10:59:51.840Z,99876.94
2023-04-28T11:02:43.677Z,99863.47
2023-04-28T11:05:19.416Z,99876.13
2023-04-28T11:08:33.414Z,99872.72
2023-04-28T11:11:18.293Z,99868.50
2023-04-28T11:13:47.881Z,99879.44
2023-04-28T11:16:17.744Z,99874.34
2023-04-28T11:18:55.938Z,99885.28
2023-04-28T11:21:28.110Z,99888.59
2023-04-28T11:23:56.469Z,99886.06
2023-04-28T11:26:24.765Z,99883.47
2023-04-28T11:28:54.051Z,99891.81
2023-04-28T11:31:24.289Z,99888.50
2023-04-28T11:33:59.982Z,99883.56
2023-04-28T11:36:31.780Z,99880.25
2023-04-28T11:38:59.987Z,99863.44
2023-04-28T11:41:27.990Z,99855.91
2023-04-28T11:43:56.031Z,99863.47
2023-04-28T11:46:25.761Z,99851.63
2023-04-28T11:49:06.557Z,99850.00
2023-04-28T11:51:39.953Z,99843.25
2023-04-28T11:54:11.792Z,99844.94
2023-04-28T11:56:40.647Z,99838.22
2023-04-28T11:59:10.692Z,99838.22
2023-04-28T12:01:47.043Z,99835.69
2023-04-28T12:04:15.606Z,99835.69
2023-04-28T12:06:45.068Z,99822.22
2023-04-28T12:09:17.334Z,99806.16
2023-04-28T12:11:58.146Z,99802.78
2023-04-28T12:14:26.677Z,99790.94
2023-04-28T12:16:54.671Z,99792.66
2023-04-28T12:19:22.597Z,99787.63
2023-04-28T12:22:05.706Z,99782.59
2023-04-28T12:24:35.648Z,99768.31
2023-04-28T12:27:21.709Z,99761.53
2023-04-28T12:29:51.003Z,99777.53
2023-04-28T12:32:20.355Z,99774.06
2023-04-28T12:34:50.693Z,99779.97
2023-04-28T12:37:22.425Z,99774.06
2023-04-28T12:39:50.333Z,99773.22
2023-04-28T12:42:18.202Z,99779.09
2023-04-28T12:44:46.435Z,99784.13
2023-04-28T12:47:14.504Z,99790.00
2023-04-28T12:49:42.489Z,99780.78
2023-04-28T12:52:10.791Z,99774.84
2023-04-28T12:54:46.885Z,99777.41
2023-04-28T12:57:15.191Z,99769.78
2023-04-28T12:59:43.138Z,99765.59
2023-04-28T13:02:11.510Z,99758.81
2023-04-28T13:04:39.705Z,99751.25
2023-04-28T13:07:08.302Z,99749.59
2023-04-28T13:09:38.572Z,99743.72
2023-04-28T13:12:08.527Z,99740.34
2023-04-28T13:14:36.674Z,99724.25
2023-04-28T13:17:04.963Z,99732.69
2023-04-28T13:19:34.252Z,99740.28
2023-04-28T13:22:05.180Z,99745.34
2023-04-28T13:24:34.572Z,99739.56
2023-04-28T13:27:04.086Z,99745.50
2023-04-28T13:29:33.363Z,99746.34
2023-04-28T13:32:01.434Z,99742.13
2023-04-28T13:34:29.331Z,99746.38
2023-04-28T13:36:57.500Z,99728.66
2023-04-28T13:39:25.507Z,99721.94
2023-04-28T13:41:53.431Z,99717.72
2023-04-28T13:44:21.540Z,99714.34
2023-04-28T13:46:50.875Z,99715.19
2023-04-28T13:49:18.766Z,99729.47
2023-04-28T13:51:46.602Z,99740.47
2023-04-28T13:54:14.606Z,99743.84
2023-04-28T13:56:42.519Z,99742.16
2023-04-28T13:59:10.491Z,99744.66
2023-04-28T14:01:38.599Z,99735.38
2023-04-28T14:04:08.046Z,99730.34
2023-04-28T14:06:36.055Z,99726.13
2023-04-28T14:09:04.107Z,99725.28
2023-04-28T14:11:31.993Z,99725.25
2023-04-28T14:14:00.040Z,99716.84
2023-04-28T14:16:29.072Z,99716.81
2023-04-28T14:18:57.001Z,99715.13
2023-04-28T14:21:26.675Z,99710.88
2023-04-28T14:23:54.620Z,99713.28
2023-04-28T14:26:23.822Z,99714.13
2023-04-28T14:28:51.833Z,99705.72
2023-04-28T14:31:19.837Z,99697.28
2023-04-28T14:33:47.828Z,99689.69
2023-04-28T14:36:15.818Z,99685.47
2023-04-28T14:38:45.047Z,99684.63
2023-04-28T14:41:12.949Z,99687.97
2023-04-28T14:43:41.090Z,99688.78
2023-04-28T14:46:09.103Z,99688.78
2023-04-28T14:48:37.862Z,99691.28
2023-04-28T14:51:05.926Z,99681.16
2023-04-28T14:53:34.394Z,99672.72
2023-04-28T14:56:17.895Z,99679.44
2023-04-28T14:58:47.312Z,99676.06
2023-04-28T15:01:15.317Z,99670.16
2023-04-28T15:03:44.484Z,99669.28
2023-04-28T15:06:13.277Z,99670.97
2023-04-28T15:08:41.322Z,99659.19
2023-04-28T15:11:10.842Z,99663.38
2023-04-28T15:13:40.005Z,99660.84
2023-04-28T15:16:09.965Z,99663.38
2023-04-28T15:18:38.410Z,99670.09
2023-04-28T15:21:07.366Z,99662.53
2023-04-28T15:23:35.302Z,99665.88
2023-04-28T15:26:03.595Z,99661.66
2023-04-28T15:28:32.890Z,99654.09
2023-04-28T15:31:00.731Z,99657.41
2023-04-28T15:33:28.822Z,99640.59
2023-04-28T15:35:56.724Z,99640.56
2023-04-28T15:38:24.611Z,99634.66
2023-04-28T15:40:52.546Z,99630.47
2023-04-28T15:43:20.530Z,99637.13
2023-04-28T15:45:49.806Z,99624.50
2023-04-28T15:48:17.756Z,99621.94
2023-04-28T15:50:46.583Z,99617.69
2023-04-28T15:53:14.494Z,99609.31
2023-04-28T15:55:42.788Z,99600.88
2023-04-28T15:58:10.900Z,99599.19
2023-04-28T16:00:40.577Z,99597.47
2023-04-28T16:03:10.109Z,99602.50
2023-04-28T16:05:38.863Z,99595.78
2023-04-28T16:08:07.135Z,99587.34
2023-04-28T16:10:35.048Z,99581.47
2023-04-28T16:13:05.227Z,99571.41
2023-04-28T16:15:34.323Z,99556.28
2023-04-28T16:18:02.425Z,99563.00
2023-04-28T16:20:31.849Z,99580.63
2023-04-28T16:22:59.737Z,99584.81
2023-04-28T16:25:27.843Z,99583.13
2023-04-28T16:27:55.801Z,99578.06
2023-04-28T16:30:23.978Z,99576.38
2023-04-28T16:32:52.859Z,99573.81
2023-04-28T16:35:21.688Z,99575.47
2023-04-28T16:37:51.044Z,99571.25
2023-04-28T16:40:19.393Z,99567.06
2023-04-28T16:42:47.252Z,99566.25
2023-04-28T16:45:15.563Z,99571.28
2023-04-28T16:47:44.011Z,99561.19
2023-04-28T16:50:14.451Z,99563.72
2023-04-28T16:52:42.376Z,99564.56
2023-04-28T16:55:11.816Z,99559.50
2023-04-28T16:57:39.626Z,99551.03
2023-04-28T17:00:09.360Z,99552.72
2023-04-28T17:02:37.478Z,99553.56
2023-04-28T17:05:06.090Z,99548.47
2023-04-28T17:07:33.934Z,99554.38
2023-04-28T17:10:01.964Z,99544.25
2023-04-28T17:12:31.397Z,99553.50
2023-04-28T17:14:59.234Z,99557.69
2023-04-28T17:17:27.240Z,99557.66
2023-04-28T17:19:55.196Z,99553.44
2023-04-28T17:22:23.089Z,99551.72
2023-04-28T17:24:51.011Z,99553.38
2023-04-28T17:27:18.917Z,99552.53
2023-04-28T17:29:48.885Z,99562.56
2023-04-28T17:32:16.940Z,99561.75
2023-04-28T17:34:44.846Z,99559.19
2023-04-28T17:37:12.815Z,99554.97
2023-04-28T17:39:40.674Z,99559.16
2023-04-28T17:42:08.648Z,99552.38
2023-04-28T17:44:36.638Z,99550.66
2023-04-28T17:47:05.914Z,99553.16
2023-04-28T17:49:33.853Z,99569.06
2023-04-28T17:52:01.871Z,99569.84
2023-04-28T17:54:30.864Z,99567.31
2023-04-28T17:56:58.690Z,99565.63
2023-04-28T17:59:26.679Z,99558.03
2023-04-28T18:01:56.387Z,99567.22
2023-04-28T18:04:25.789Z,99562.97
2023-04-28T18:06:53.688Z,99565.44
2023-04-28T18:09:21.614Z,99565.44
2023-04-28T18:11:49.571Z,99563.66
2023-04-28T18:14:18.484Z,99565.34
2023-04-28T18:16:46.733Z,99569.50
2023-04-28T18:19:14.657Z,99577.00
2023-04-28T18:21:43.911Z,99572.81
2023-04-28T18:24:11.933Z,99570.22
2023-04-28T18:26:39.769Z,99578.53
2023-04-28T18:29:07.613Z,99581.06
2023-04-28T18:31:35.689Z,99569.31
2023-04-28T18:34:05.065Z,99583.53
2023-04-28T18:36:34.824Z,99580.19
2023-04-28T18:39:06.183Z,99576.84
2023-04-28T18:41:35.789Z,99571.81
2023-04-28T18:44:04.018Z,99577.59
2023-04-28T18:46:32.748Z,99573.38
2023-04-28T18:49:00.747Z,99581.66
2023-04-28T18:51:28.639Z,99581.66
2023-04-28T18:53:56.908Z,99586.72
2023-04-28T18:56:26.144Z,99587.50
2023-04-28T18:58:54.048Z,99595.00
2023-04-28T19:01:24.801Z,99586.66
2023-04-28T19:03:53.228Z,99588.31
2023-04-28T19:06:21.938Z,99586.50
2023-04-28T19:08:49.816Z,99589.88
2023-04-28T19:11:17.780Z,99588.28
2023-04-28T19:13:47.159Z,99581.56
2023-04-28T19:16:15.146Z,99580.72
2023-04-28T19:18:44.438Z,99583.25
2023-04-28T19:21:13.727Z,99588.19
2023-04-28T19:23:41.785Z,99583.97
2023-04-28T19:26:10.598Z,99580.59
2023-04-28T19:28:38.470Z,99591.53
2023-04-28T19:31:09.343Z,99594.91
2023-04-28T19:33:37.285Z,99590.69
2023-04-28T19:36:09.747Z,99603.97
2023-04-28T19:38:40.236Z,99604.50
2023-04-28T19:41:08.222Z,99602.53
2023-04-28T19:43:36.644Z,99593.94
2023-04-28T19:46:05.002Z,99592.38
2023-04-28T19:48:34.524Z,99599.19
2023-04-28T19:51:02.371Z,99594.22
2023-04-28T19:53:30.285Z,99596.84
2023-04-28T19:56:01.798Z,99593.53
2023-04-28T19:58:29.730Z,99589.41
2023-04-28T20:00:58.284Z,99592.66
2023-04-28T20:03:26.327Z,99589.94
2023-04-28T20:05:55.631Z,99589.94
2023-04-28T20:08:25.547Z,99582.38
2023-04-28T20:10:54.358Z,99586.59
2023-04-28T20:13:22.241Z,99584.13
2023-04-28T20:15:50.211Z,99574.13
2023-04-28T20:18:18.126Z,99577.47
2023-04-28T20:20:46.074Z,99576.56
2023-04-28T20:23:15.315Z,99574.91
2023-04-28T20:25:43.247Z,99573.28
2023-04-28T20:28:11.349Z,99565.00
2023-04-28T20:30:41.857Z,99560.84
2023-04-28T20:33:10.487Z,99560.91
2023-04-28T20:35:39.022Z,99557.53
2023-04-28T20:38:07.015Z,99571.75
2023-04-28T20:40:37.069Z,99565.88
2023-04-28T20:43:04.981Z,99558.31
2023-04-28T20:45:34.535Z,99552.34
2023-04-28T20:48:03.118Z,99550.63
2023-04-28T20:50:33.336Z,99538.66
2023-04-28T20:53:01.478Z,99555.50
2023-04-28T20:55:29.453Z,99542.94
2023-04-28T20:57:58.638Z,99545.44
2023-04-28T21:00:26.592Z,99552.22
2023-04-28T21:02:54.742Z,99544.69
2023-04-28T21:05:23.722Z,99528.72
2023-04-28T21:07:51.693Z,99529.53
2023-04-28T21:10:19.747Z,99532.84
2023-04-28T21:12:47.601Z,99531.16
2023-04-28T21:15:17.219Z,99536.88
2023-04-28T21:17:45.086Z,99544.41
2023-04-28T21:20:14.625Z,99549.28
2023-04-28T21:22:42.495Z,99558.22
2023-04-28T21:25:10.741Z,99551.50
2023-04-28T21:27:38.660Z,99543.13
2023-04-28T21:30:07.765Z,99538.69
2023-04-28T21:32:37.063Z,99541.22
2023-04-28T21:35:05.450Z,99536.38
2023-04-28T21:37:33.406Z,99548.13
2023-04-28T21:40:01.964Z,99538.13
2023-04-28T21:42:31.762Z,99539.78
2023-04-28T21:44:59.879Z,99523.16
2023-04-28T21:47:28.292Z,99515.00
2023-04-28T21:49:57.618Z,99525.88
2023-04-28T21:52:25.661Z,99541.72
2023-04-28T21:54:53.766Z,99527.53
2023-04-28T21:57:21.727Z,99525.06
2023-04-28T21:59:50.716Z,99520.91
2023-04-28T22:02:18.975Z,99529.94
2023-04-28T22:04:46.976Z,99537.50
2023-04-28T22:07:16.205Z,99518.28
2023-04-28T22:09:44.161Z,99535.72
2023-04-28T22:12:12.092Z,99518.09
2023-04-28T22:14:41.544Z,99528.66
2023-04-28T22:17:09.945Z,99531.19
2023-04-28T22:19:38.047Z,99524.56
2023-04-28T22:22:07.673Z,99519.59
2023-04-28T22:24:37.168Z,99520.31
2023-04-28T22:27:05.264Z,99512.78
2023-04-28T22:29:33.178Z,99517.84
2023-04-28T22:32:02.593Z,99510.34
2023-04-28T22:34:30.729Z,99514.47
2023-04-28T22:36:58.663Z,99504.50
2023-04-28T22:39:27.065Z,99503.66
2023-04-28T22:41:56.347Z,99500.31
2023-04-28T22:44:24.256Z,99506.13
2023-04-28T22:46:52.938Z,99507.03
2023-04-28T22:49:24.716Z,99495.22
2023-04-28T22:51:52.838Z,99502.66
2023-04-28T22:54:20.969Z,99488.16
2023-04-28T22:56:50.310Z,99455.19
2023-04-28T22:59:22.135Z,99446.97
2023-04-28T23:01:50.348Z,99464.81
2023-04-28T23:04:20.272Z,99486.00
2023-04-28T23:06:48.634Z,99490.19
2023-04-28T23:09:16.609Z,99495.31
2023-04-28T23:11:44.498Z,99498.00
2023-04-28T23:14:12.463Z,99484.72
2023-04-28T23:16:42.085Z,99493.88
2023-04-28T23:19:10.136Z,99482.19
2023-04-28T23:21:38.522Z,99484.03
2023-04-28T23:24:07.466Z,99459.56
2023-04-28T23:26:35.521Z,99427.38
2023-04-28T23:29:03.467Z,99432.22
2023-04-28T23:31:31.710Z,99423.81
2023-04-28T23:34:00.978Z,99425.56
2023-04-28T23:36:28.999Z,99434.13
2023-04-28T23:38:56.884Z,99451.63
2023-04-28T23:41:25.015Z,99413.47
2023-04-28T23:43:53.035Z,99449.00
2023-04-28T23:46:21.457Z,99451.44
2023-04-28T23:48:49.360Z,99454.66
2023-04-28T23:51:18.648Z,99446.13
2023-04-28T23:53:46.562Z,99452.09
2023-04-28T23:56:14.547Z,99447.03
2023-04-28T23:58:42.863Z,99443.63
